Baltia — 9HMG9 — position and weather

sailwx.info

Track history (hours):
 
Tides and Currents Weather Stations Pressure Air Temp Water Temp Dewpoint Dewpoint Depression Visibility Wind Speed Wind Dir Waves Ship Positions

Baltia

Last reported at 2017-Oct-22 00:27 UTC. Time now 2017-Nov-23 00:26 UTC.
Position N 46°13' W 125°39'.
Warning: this ship's position is 31 days out of date.

Length 224 m; draft 13.1 m.

Type: Cargo ship. MMSI: 249174000.

Date/timePositionNaut miles runAvg speedWind from/ knotsBaromVisibWave heightAir tempDewpointWater temp
2017-Oct-22 00:27N 46°13' W 125°39'3 6.3
2017-Oct-22 00:00N 46°13' W 125°34'4 6.9
2017-Oct-21 23:30N 46°12' W 125°29'4 7.4
2017-Oct-21 22:59N 46°13' W 125°24'4 7.5
2017-Oct-21 22:30N 46°13' W 125°19'4 7.9
2017-Oct-21 22:00N 46°13' W 125°13'4 7.9
2017-Oct-21 21:30N 46°12' W 125°07'4 7.8
2017-Oct-21 21:00N 46°12' W 125°02'4 8.0
2017-Oct-21 20:30N 46°12' W 124°56'4 7.9
2017-Oct-21 20:00N 46°12' W 124°50'4 7.6
2017-Oct-21 19:30N 46°13' W 124°45'3 7.0
2017-Oct-21 19:00N 46°13' W 124°40'3 6.9
2017-Oct-21 18:30N 46°12' W 124°35'3 6.2
2017-Oct-21 18:00N 46°13' W 124°30'3 5.8
2017-Oct-21 17:30N 46°13' W 124°26'3 5.3
2017-Oct-21 17:00N 46°13' W 124°22'3 6.1
2017-Oct-21 16:30N 46°13' W 124°18'3 5.2
2017-Oct-21 16:00N 46°13' W 124°14'2 4.7
2017-Oct-21 15:30N 46°13' W 124°11'2 3.6
2017-Oct-21 15:00N 46°14' W 124°09'7 6.6
2017-Oct-21 14:00N 46°14' W 123°59'5 9.9
2017-Oct-21 13:30N 46°11' W 123°53'4 8.6
2017-Oct-21 13:01N 46°13' W 123°47'510.3
2017-Oct-21 12:30N 46°15' W 123°40'610.7
2017-Oct-21 11:59N 46°16' W 123°32'4 8.2
2017-Oct-21 11:30N 46°15' W 123°27'4 8.6
2017-Oct-21 11:01N 46°11' W 123°26'4 8.0
2017-Oct-21 10:30N 46°09' W 123°21'5 9.4
2017-Oct-21 10:00N 46°10' W 123°14'5 9.5
2017-Oct-21 09:30N 46°11' W 123°08'5 9.8
2017-Oct-21 09:00N 46°09' W 123°02'5 9.7
2017-Oct-21 08:31N 46°06' W 122°56'4 8.3
2017-Oct-21 08:00N 46°02' W 122°53'1 1.6
2017-Oct-21 07:30N 46°02' W 122°53'0 0.2
2017-Oct-21 07:00N 46°02' W 122°53'0 0.0
2017-Oct-21 06:30N 46°02' W 122°53'0 0.0
2017-Oct-21 06:00N 46°02' W 122°53'0 0.0
2017-Oct-21 05:30N 46°02' W 122°53'0 0.0
2017-Oct-21 05:00N 46°02' W 122°53'0 0.0
2017-Oct-21 04:30N 46°02' W 122°53'0 0.0
2017-Oct-21 04:00N 46°02' W 122°53'0 0.5
2017-Oct-21 03:30N 46°02' W 122°52'0 0.0
2017-Oct-21 02:59N 46°02' W 122°52'0 0.1
2017-Oct-21 02:20N 46°02' W 122°52'0 0.1
2017-Oct-21 01:56N 46°02' W 122°52'0 0.0
2017-Oct-21 01:29N 46°02' W 122°52'0 0.0
2017-Oct-21 00:59N 46°02' W 122°52'0 0.0
2017-Oct-21 00:27N 46°02' W 122°52'0 0.0
2017-Oct-20 23:14N 46°02' W 122°52'0 0.0
2017-Oct-20 22:59N 46°02' W 122°52'0 0.0
2017-Oct-20 22:29N 46°02' W 122°52'0 0.0
2017-Oct-20 21:59N 46°02' W 122°52'0 0.1
2017-Oct-20 21:29N 46°02' W 122°52'0 0.1
2017-Oct-20 20:59N 46°02' W 122°52'0 0.0
2017-Oct-20 20:26N 46°02' W 122°52'0 0.0
2017-Oct-20 19:57N 46°02' W 122°52'0 0.0
2017-Oct-20 19:20N 46°02' W 122°52'0 0.0
2017-Oct-20 18:50N 46°02' W 122°52'0 0.0
2017-Oct-20 18:30N 46°02' W 122°52'0 0.0
2017-Oct-20 17:56N 46°02' W 122°52'0 0.1
2017-Oct-20 17:29N 46°02' W 122°52'0 0.0
2017-Oct-20 16:26N 46°02' W 122°52'0 0.0
2017-Oct-20 15:59N 46°02' W 122°52'0 0.1
2017-Oct-20 15:20N 46°02' W 122°52'0 0.1
2017-Oct-20 14:38N 46°02' W 122°52'0 0.1
2017-Oct-20 13:59N 46°02' W 122°52'0 0.1
2017-Oct-20 13:29N 46°02' W 122°52'0 0.1
2017-Oct-20 12:59N 46°02' W 122°52'0 0.0
2017-Oct-20 12:26N 46°02' W 122°52'0 0.1
2017-Oct-20 11:59N 46°02' W 122°52'0 0.1
2017-Oct-20 11:29N 46°02' W 122°52'0 0.1
2017-Oct-20 10:53N 46°02' W 122°52'0 0.0
2017-Oct-20 10:29N 46°02' W 122°52'0 0.0
2017-Oct-20 09:59N 46°02' W 122°52'0 0.0
2017-Oct-20 09:26N 46°02' W 122°52'0 0.0
2017-Oct-20 08:59N 46°02' W 122°52'0 0.0
2017-Oct-20 08:29N 46°02' W 122°52'0 0.0
2017-Oct-20 07:56N 46°02' W 122°52'0 0.0
2017-Oct-20 07:29N 46°02' W 122°52'0 0.0
2017-Oct-20 06:53N 46°02' W 122°52'0 0.0
2017-Oct-20 06:29N 46°02' W 122°52'0 0.1
2017-Oct-20 05:56N 46°02' W 122°52'0 0.1
2017-Oct-20 05:29N 46°02' W 122°52'0 0.0
2017-Oct-20 04:59N 46°02' W 122°52'0 0.0
2017-Oct-20 04:29N 46°02' W 122°52'0 0.0
2017-Oct-20 03:56N 46°02' W 122°52'0 0.0
2017-Oct-20 03:29N 46°02' W 122°52'0 0.1
2017-Oct-20 02:59N 46°02' W 122°52'0 0.1
2017-Oct-20 02:29N 46°02' W 122°52'0 0.0
2017-Oct-20 01:59N 46°02' W 122°52'0 0.0
2017-Oct-20 01:29N 46°02' W 122°52'0 0.0
2017-Oct-20 00:56N 46°02' W 122°52'0 0.0
2017-Oct-20 00:26N 46°02' W 122°52'0 0.0
2017-Oct-19 23:59N 46°02' W 122°52'0 0.0
2017-Oct-19 23:26N 46°02' W 122°52'0 0.0
2017-Oct-19 22:59N 46°02' W 122°52'0 0.0
2017-Oct-19 22:26N 46°02' W 122°52'0 0.0
2017-Oct-19 21:56N 46°02' W 122°52'0 0.1
2017-Oct-19 21:26N 46°02' W 122°52'0 0.1
2017-Oct-19 20:56N 46°02' W 122°52'0 0.0
2017-Oct-19 20:29N 46°02' W 122°52'0 0.0
2017-Oct-19 20:00N 46°02' W 122°52'0 0.0
2017-Oct-19 19:29N 46°02' W 122°52'0 0.0
2017-Oct-19 18:59N 46°02' W 122°52'0 0.1
2017-Oct-19 18:29N 46°02' W 122°52'0 0.0
2017-Oct-19 17:38N 46°02' W 122°52'0 0.3
2017-Oct-19 17:29N 46°02' W 122°52'0 0.1
2017-Oct-19 16:59N 46°02' W 122°52'0 0.0
2017-Oct-19 16:29N 46°02' W 122°52'0 0.0
2017-Oct-19 15:56N 46°02' W 122°52'0 0.1
2017-Oct-19 15:29N 46°02' W 122°52'0 0.1
2017-Oct-19 14:59N 46°02' W 122°52'0 0.0
2017-Oct-19 13:47N 46°02' W 122°52'0 0.1
2017-Oct-19 13:20N 46°02' W 122°52'0 0.1
2017-Oct-19 12:56N 46°02' W 122°52'0 0.1
2017-Oct-19 12:29N 46°02' W 122°52'0 0.1
2017-Oct-19 11:56N 46°02' W 122°52'0 0.0
2017-Oct-19 11:29N 46°02' W 122°52'0 0.0
2017-Oct-19 10:59N 46°02' W 122°52'0 0.0
2017-Oct-19 09:50N 46°02' W 122°52'0 0.0
2017-Oct-19 09:23N 46°02' W 122°52'0 0.0
2017-Oct-19 08:59N 46°02' W 122°52'0 0.0
2017-Oct-19 08:23N 46°02' W 122°52'0 0.0
2017-Oct-19 07:56N 46°02' W 122°52'0 0.0
2017-Oct-19 07:26N 46°02' W 122°52'0 0.0
2017-Oct-19 06:59N 46°02' W 122°52'0 0.0
2017-Oct-19 06:29N 46°02' W 122°52'0 0.0
2017-Oct-19 05:56N 46°02' W 122°52'0 0.0
2017-Oct-19 05:29N 46°02' W 122°52'0 0.0
2017-Oct-19 04:50N 46°02' W 122°52'0 0.0
2017-Oct-19 04:23N 46°02' W 122°52'0 0.0
2017-Oct-19 03:59N 46°02' W 122°52'0 0.0
2017-Oct-19 03:29N 46°02' W 122°52'0 0.0
2017-Oct-19 02:59N 46°02' W 122°52'0 0.1
2017-Oct-19 02:23N 46°02' W 122°52'0 0.0
2017-Oct-19 01:50N 46°02' W 122°52'0 0.1
2017-Oct-19 01:29N 46°02' W 122°52'0 0.0
2017-Oct-19 00:56N 46°02' W 122°52'0 0.0
2017-Oct-19 00:26N 46°02' W 122°52'0 0.0
2017-Oct-18 23:53N 46°02' W 122°52'0 0.0
2017-Oct-18 23:20N 46°02' W 122°52'0 0.0
2017-Oct-18 22:59N 46°02' W 122°52'0 0.0
2017-Oct-18 22:29N 46°02' W 122°52'0 0.1
2017-Oct-18 21:59N 46°02' W 122°52'0 0.0
2017-Oct-18 21:26N 46°02' W 122°52'0 0.1
2017-Oct-18 20:59N 46°02' W 122°52'0 0.0
2017-Oct-18 20:29N 46°02' W 122°52'0 0.0
2017-Oct-18 19:59N 46°02' W 122°52'0 0.0
2017-Oct-18 19:29N 46°02' W 122°52'0 0.0
2017-Oct-18 18:53N 46°02' W 122°52'0 0.0
2017-Oct-18 18:29N 46°02' W 122°52'0 0.0
2017-Oct-18 17:56N 46°02' W 122°52'0 0.0
2017-Oct-18 17:29N 46°02' W 122°52'0 0.0
2017-Oct-18 16:59N 46°02' W 122°52'0 0.0
2017-Oct-18 16:29N 46°02' W 122°52'0 0.0
2017-Oct-18 15:50N 46°02' W 122°52'0 0.1
2017-Oct-18 15:23N 46°02' W 122°52'0 0.1
2017-Oct-18 14:59N 46°02' W 122°52'0 0.0
2017-Oct-18 13:59N 46°02' W 122°52'0 0.1
2017-Oct-18 13:29N 46°02' W 122°52'0 0.0
2017-Oct-18 12:44N 46°02' W 122°52'0 0.2
2017-Oct-18 12:29N 46°02' W 122°52'0 0.1
2017-Oct-18 11:59N 46°02' W 122°52'0 0.0
2017-Oct-18 11:29N 46°02' W 122°52'0 0.0
2017-Oct-18 10:56N 46°02' W 122°52'0 0.0
2017-Oct-18 10:26N 46°02' W 122°52'0 0.0
2017-Oct-18 09:50N 46°02' W 122°52'0 0.0
2017-Oct-18 09:26N 46°02' W 122°52'0 0.0
2017-Oct-18 08:44N 46°02' W 122°52'0 0.0
2017-Oct-18 08:14N 46°02' W 122°52'0 0.0
2017-Oct-18 07:56N 46°02' W 122°52'0 0.0
2017-Oct-18 07:26N 46°02' W 122°52'0 0.0
2017-Oct-18 06:53N 46°02' W 122°52'0 0.0
2017-Oct-18 06:29N 46°02' W 122°52'0 0.0
2017-Oct-18 05:38N 46°02' W 122°52'0 0.0
2017-Oct-18 05:29N 46°02' W 122°52'0 0.0
2017-Oct-18 04:59N 46°02' W 122°52'0 0.0
2017-Oct-18 04:29N 46°02' W 122°52'0 0.0
2017-Oct-18 03:59N 46°02' W 122°52'0 0.0
2017-Oct-18 03:23N 46°02' W 122°52'0 0.0
2017-Oct-18 02:59N 46°02' W 122°52'0 0.0
2017-Oct-18 02:29N 46°02' W 122°52'0 0.0
2017-Oct-18 02:00N 46°02' W 122°52'0 0.3
2017-Oct-18 01:30N 46°02' W 122°52'0 0.1
2017-Oct-18 01:00N 46°02' W 122°52'0 0.0
2017-Oct-18 00:30N 46°02' W 122°52'3 5.3
2017-Oct-18 00:00N 46°04' W 122°53'4 8.8
2017-Oct-17 23:30N 46°07' W 122°58'510.7
2017-Oct-17 23:00N 46°10' W 123°05'611.2
2017-Oct-17 22:30N 46°10' W 123°13'611.9
2017-Oct-17 22:00N 46°09' W 123°21'5 9.1
2017-Oct-17 21:30N 46°12' W 123°26'511.0
2017-Oct-17 21:00N 46°16' W 123°31'713.7
2017-Oct-17 20:30N 46°15' W 123°40'5 9.9
2017-Oct-17 20:01N 46°13' W 123°47'0 0.4
2017-Oct-17 19:29N 46°13' W 123°47'0 0.1
2017-Oct-17 18:59N 46°13' W 123°47'0 0.0
2017-Oct-17 18:29N 46°13' W 123°47'0 0.0
2017-Oct-17 17:59N 46°13' W 123°47'0 0.1
2017-Oct-17 17:29N 46°13' W 123°47'0 0.1
2017-Oct-17 16:59N 46°13' W 123°46'0 0.2
2017-Oct-17 16:14N 46°13' W 123°47'0 0.2
2017-Oct-17 15:59N 46°13' W 123°47'0 0.1
2017-Oct-17 15:29N 46°13' W 123°47'0 0.4
2017-Oct-17 14:59N 46°13' W 123°47'0 0.2
2017-Oct-17 14:29N 46°13' W 123°47'0 0.1
2017-Oct-17 13:59N 46°13' W 123°47'0 0.1
2017-Oct-17 13:29N 46°13' W 123°47'0 0.1
2017-Oct-17 12:59N 46°13' W 123°47'0 0.0
2017-Oct-17 12:29N 46°13' W 123°47'0 0.0
2017-Oct-17 11:59N 46°13' W 123°47'0 0.0
2017-Oct-17 11:29N 46°13' W 123°47'0 0.0
2017-Oct-17 10:59N 46°13' W 123°47'0 0.1
2017-Oct-17 10:29N 46°13' W 123°47'0 0.0
2017-Oct-17 09:59N 46°13' W 123°47'0 0.0
2017-Oct-17 09:29N 46°13' W 123°47'0 0.1
2017-Oct-17 08:59N 46°13' W 123°47'0 0.1
2017-Oct-17 08:29N 46°13' W 123°47'0 0.4
2017-Oct-17 07:59N 46°13' W 123°47'0 0.1
2017-Oct-17 07:29N 46°13' W 123°47'0 0.0
2017-Oct-17 06:59N 46°13' W 123°47'0 0.1
2017-Oct-17 06:29N 46°13' W 123°47'0 0.0
2017-Oct-17 05:59N 46°13' W 123°47'0 0.0
2017-Oct-17 05:26N 46°13' W 123°47'0 0.0
2017-Oct-17 04:59N 46°13' W 123°47'0 0.0
2017-Oct-17 04:29N 46°13' W 123°47'0 0.1
2017-Oct-17 03:59N 46°13' W 123°47'0 0.0
2017-Oct-17 03:29N 46°13' W 123°47'0 0.4
2017-Oct-17 02:56N 46°13' W 123°47'0 0.2
2017-Oct-17 02:26N 46°13' W 123°47'0 0.0
2017-Oct-17 01:56N 46°13' W 123°47'0 0.0
2017-Oct-17 01:29N 46°13' W 123°47'0 0.0
2017-Oct-17 00:59N 46°13' W 123°47'0 0.0
2017-Oct-17 00:29N 46°13' W 123°47'0 0.1
2017-Oct-16 23:59N 46°13' W 123°47'0 0.1
2017-Oct-16 23:26N 46°13' W 123°47'0 0.1
2017-Oct-16 22:59N 46°13' W 123°47'0 0.0
2017-Oct-16 22:26N 46°13' W 123°47'0 0.1
2017-Oct-16 21:59N 46°13' W 123°47'0 0.1
2017-Oct-16 21:29N 46°13' W 123°47'0 0.1
2017-Oct-16 20:59N 46°13' W 123°47'0 0.2
2017-Oct-16 20:29N 46°13' W 123°47'0 0.4
2017-Oct-16 19:59N 46°13' W 123°47'0 0.0
2017-Oct-16 19:29N 46°13' W 123°47'0 0.0
2017-Oct-16 18:59N 46°13' W 123°47'0 0.1
2017-Oct-16 18:29N 46°13' W 123°47'0 0.0
2017-Oct-16 17:59N 46°13' W 123°47'0 0.0
2017-Oct-16 17:29N 46°13' W 123°47'0 0.0
2017-Oct-16 16:59N 46°13' W 123°47'0 0.0
2017-Oct-16 16:29N 46°13' W 123°47'0 0.0
2017-Oct-16 15:59N 46°13' W 123°47'0 0.1
2017-Oct-16 15:29N 46°13' W 123°47'0 0.2
2017-Oct-16 14:59N 46°13' W 123°47'0 0.3
2017-Oct-16 14:29N 46°13' W 123°47'0 0.0
2017-Oct-16 13:26N 46°13' W 123°47'0 0.0
2017-Oct-16 12:59N 46°13' W 123°47'0 0.0
2017-Oct-16 12:29N 46°13' W 123°47'0 0.1
2017-Oct-16 11:59N 46°13' W 123°47'0 0.1
2017-Oct-16 11:29N 46°13' W 123°47'0 0.0
2017-Oct-16 10:59N 46°13' W 123°47'0 0.0
2017-Oct-16 10:29N 46°13' W 123°47'0 0.0
2017-Oct-16 09:29N 46°13' W 123°47'0 0.0
2017-Oct-16 08:59N 46°13' W 123°47'0 0.1
2017-Oct-16 08:29N 46°13' W 123°47'0 0.1
2017-Oct-16 07:59N 46°13' W 123°47'0 0.1
2017-Oct-16 07:02N 46°13' W 123°47'0 0.2
2017-Oct-16 06:56N 46°13' W 123°47'0 0.4
2017-Oct-16 06:26N 46°13' W 123°47'0 0.0
2017-Oct-16 05:59N 46°13' W 123°47'0 0.1
2017-Oct-16 05:29N 46°13' W 123°47'0 0.0
2017-Oct-16 04:59N 46°13' W 123°47'0 0.0
2017-Oct-16 04:29N 46°13' W 123°47'0 0.0
2017-Oct-16 03:59N 46°13' W 123°47'0 0.0
2017-Oct-16 03:29N 46°13' W 123°47'0 0.0
2017-Oct-16 02:59N 46°13' W 123°47'0 0.2
2017-Oct-16 02:29N 46°13' W 123°47'0 0.3
2017-Oct-16 01:59N 46°13' W 123°47'0 0.1
2017-Oct-16 01:29N 46°13' W 123°47'0 0.0
2017-Oct-16 00:59N 46°13' W 123°47'0 0.0
2017-Oct-16 00:29N 46°13' W 123°47'0 0.0
2017-Oct-15 23:53N 46°13' W 123°47'0 0.0
2017-Oct-15 23:29N 46°13' W 123°47'0 0.0
2017-Oct-15 22:59N 46°13' W 123°47'0 0.0
2017-Oct-15 22:29N 46°13' W 123°47'0 0.0
2017-Oct-15 21:59N 46°13' W 123°47'0 0.0
2017-Oct-15 21:29N 46°13' W 123°47'0 0.1
2017-Oct-15 20:59N 46°13' W 123°47'0 0.0
2017-Oct-15 20:29N 46°13' W 123°47'0 0.1
2017-Oct-15 19:59N 46°13' W 123°47'0 0.0
2017-Oct-15 19:23N 46°13' W 123°47'0 0.3
2017-Oct-15 18:56N 46°13' W 123°47'0 0.3
2017-Oct-15 18:29N 46°13' W 123°47'0 0.1
2017-Oct-15 17:59N 46°13' W 123°47'0 0.0
2017-Oct-15 17:29N 46°13' W 123°47'0 0.0
2017-Oct-15 16:59N 46°13' W 123°47'0 0.0
2017-Oct-15 16:29N 46°13' W 123°47'0 0.0
2017-Oct-15 15:59N 46°13' W 123°47'0 0.0
2017-Oct-15 15:29N 46°13' W 123°47'0 0.1
2017-Oct-15 14:59N 46°13' W 123°47'0 0.2
2017-Oct-15 13:50N 46°13' W 123°47'0 0.2
2017-Oct-15 13:29N 46°13' W 123°47'0 0.1
2017-Oct-15 12:59N 46°13' W 123°47'0 0.0
2017-Oct-15 12:29N 46°13' W 123°47'0 0.0
2017-Oct-15 11:59N 46°13' W 123°47'0 0.0
2017-Oct-15 11:26N 46°13' W 123°47'0 0.0
2017-Oct-15 10:59N 46°13' W 123°47'0 0.0
2017-Oct-15 10:29N 46°13' W 123°47'0 0.0
2017-Oct-15 09:59N 46°13' W 123°47'0 0.0
2017-Oct-15 09:29N 46°13' W 123°47'0 0.0
2017-Oct-15 08:59N 46°13' W 123°47'0 0.1
2017-Oct-15 08:29N 46°13' W 123°47'0 0.0
2017-Oct-15 07:56N 46°13' W 123°47'0 0.1
2017-Oct-15 07:29N 46°13' W 123°47'0 0.0
2017-Oct-15 06:59N 46°13' W 123°47'0 0.0
2017-Oct-15 06:29N 46°13' W 123°47'0 0.0
2017-Oct-15 05:59N 46°13' W 123°47'0 0.3
2017-Oct-15 05:29N 46°13' W 123°47'0 0.2
2017-Oct-15 04:53N 46°13' W 123°47'0 0.0
2017-Oct-15 04:29N 46°13' W 123°47'0 0.1
2017-Oct-15 03:59N 46°13' W 123°47'0 0.0
2017-Oct-15 03:29N 46°13' W 123°47'0 0.0
2017-Oct-15 02:59N 46°13' W 123°47'0 0.0
2017-Oct-15 02:29N 46°13' W 123°47'0 0.1
2017-Oct-15 01:38N 46°13' W 123°47'0 0.3
2017-Oct-15 01:20N 46°13' W 123°47'0 0.2
2017-Oct-15 00:59N 46°13' W 123°47'0 0.1
2017-Oct-15 00:29N 46°13' W 123°47'0 0.0
2017-Oct-14 23:56N 46°13' W 123°47'0 0.0
2017-Oct-14 23:26N 46°13' W 123°47'0 0.0
2017-Oct-14 22:53N 46°13' W 123°47'0 0.0
2017-Oct-14 22:29N 46°13' W 123°47'0 0.0
2017-Oct-14 21:56N 46°13' W 123°47'0 0.0
2017-Oct-14 21:29N 46°13' W 123°47'0 0.0
2017-Oct-14 20:59N 46°13' W 123°47'0 0.1
2017-Oct-14 20:29N 46°13' W 123°47'0 0.1
2017-Oct-14 19:59N 46°13' W 123°47'0 0.0
2017-Oct-14 19:26N 46°13' W 123°47'0 0.0
2017-Oct-14 18:59N 46°13' W 123°47'0 0.0
2017-Oct-14 18:29N 46°13' W 123°47'0 0.0
2017-Oct-14 17:59N 46°13' W 123°47'0 0.3
2017-Oct-14 17:26N 46°13' W 123°47'0 0.3
2017-Oct-14 16:56N 46°13' W 123°47'0 0.0
2017-Oct-14 16:29N 46°13' W 123°47'0 0.0
2017-Oct-14 15:59N 46°13' W 123°47'0 0.0
2017-Oct-14 15:08N 46°13' W 123°47'0 0.0
2017-Oct-14 14:59N 46°13' W 123°47'0 0.1
2017-Oct-14 14:29N 46°13' W 123°47'0 0.0
2017-Oct-14 13:59N 46°13' W 123°47'0 0.2
2017-Oct-14 13:26N 46°13' W 123°47'0 0.2
2017-Oct-14 12:56N 46°13' W 123°47'0 0.3
2017-Oct-14 12:29N 46°13' W 123°47'0 0.1
2017-Oct-14 11:59N 46°13' W 123°47'0 0.1
2017-Oct-14 11:29N 46°13' W 123°47'0 0.0
2017-Oct-14 10:59N 46°13' W 123°47'0 0.0
2017-Oct-14 10:29N 46°13' W 123°47'0 0.1
2017-Oct-14 09:59N 46°13' W 123°47'0 0.1
2017-Oct-14 09:29N 46°13' W 123°47'0 0.0
2017-Oct-14 08:56N 46°13' W 123°47'0 0.0
2017-Oct-14 08:29N 46°13' W 123°47'0 0.0
2017-Oct-14 07:59N 46°13' W 123°47'0 0.0
2017-Oct-14 07:29N 46°13' W 123°47'0 0.0
2017-Oct-14 06:59N 46°13' W 123°47'0 0.1
2017-Oct-14 06:26N 46°13' W 123°47'0 0.1
2017-Oct-14 05:59N 46°13' W 123°47'0 0.1
2017-Oct-14 05:29N 46°13' W 123°47'0 0.0
2017-Oct-14 04:59N 46°13' W 123°47'0 0.1
2017-Oct-14 04:26N 46°13' W 123°47'0 0.3
2017-Oct-14 03:59N 46°13' W 123°47'0 0.1
2017-Oct-14 03:20N 46°13' W 123°47'0 0.0
2017-Oct-14 02:59N 46°13' W 123°47'0 0.1
2017-Oct-14 02:29N 46°13' W 123°47'0 0.0
2017-Oct-14 01:59N 46°13' W 123°47'0 0.0
2017-Oct-14 01:29N 46°13' W 123°47'0 0.0
2017-Oct-14 00:59N 46°13' W 123°47'0 0.2
2017-Oct-14 00:29N 46°13' W 123°47'0 0.1
2017-Oct-13 23:59N 46°13' W 123°47'0 0.2
2017-Oct-13 23:29N 46°13' W 123°47'0 0.1
2017-Oct-13 22:59N 46°13' W 123°47'0 0.0
2017-Oct-13 22:23N 46°13' W 123°47'0 0.0
2017-Oct-13 21:59N 46°13' W 123°47'0 0.0
2017-Oct-13 21:11N 46°13' W 123°47'0 0.1
2017-Oct-13 20:59N 46°13' W 123°47'0 0.1
2017-Oct-13 20:26N 46°13' W 123°47'0 0.0
2017-Oct-13 19:59N 46°13' W 123°47'0 0.1
2017-Oct-13 19:29N 46°13' W 123°47'0 0.1
2017-Oct-13 18:59N 46°13' W 123°47'0 0.1
2017-Oct-13 18:20N 46°13' W 123°47'0 0.0
2017-Oct-13 17:59N 46°13' W 123°47'0 0.2
2017-Oct-13 17:14N 46°13' W 123°47'0 0.4
2017-Oct-13 16:59N 46°13' W 123°47'0 0.2
2017-Oct-13 16:29N 46°13' W 123°47'0 0.1
2017-Oct-13 15:59N 46°13' W 123°47'0 0.0
2017-Oct-13 15:26N 46°13' W 123°47'0 0.0
2017-Oct-13 14:59N 46°13' W 123°47'0 0.0
2017-Oct-13 14:29N 46°13' W 123°47'0 0.0
2017-Oct-13 13:50N 46°13' W 123°47'0 0.0
2017-Oct-13 13:29N 46°13' W 123°47'0 0.1
2017-Oct-13 12:50N 46°13' W 123°47'0 0.0
2017-Oct-13 12:29N 46°13' W 123°47'0 0.1
2017-Oct-13 11:56N 46°13' W 123°47'0 0.3
2017-Oct-13 11:29N 46°13' W 123°47'0 0.3
2017-Oct-13 10:59N 46°13' W 123°47'0 0.0
2017-Oct-13 10:29N 46°13' W 123°47'0 0.0
2017-Oct-13 09:59N 46°13' W 123°47'0 0.1
2017-Oct-13 09:14N 46°13' W 123°47'0 0.0
2017-Oct-13 08:56N 46°13' W 123°47'0 0.0
2017-Oct-13 08:14N 46°13' W 123°47'0 0.1
2017-Oct-13 07:50N 46°13' W 123°47'0 0.1
2017-Oct-13 07:29N 46°13' W 123°47'0 0.0
2017-Oct-13 06:59N 46°13' W 123°47'0 0.0
2017-Oct-13 06:29N 46°13' W 123°47'0 0.0
2017-Oct-13 05:47N 46°13' W 123°47'0 0.0
2017-Oct-13 05:29N 46°13' W 123°47'0 0.0
2017-Oct-13 04:59N 46°13' W 123°47'0 0.0
2017-Oct-13 04:29N 46°13' W 123°47'0 0.1
2017-Oct-13 03:59N 46°13' W 123°47'0 0.4
2017-Oct-13 03:29N 46°13' W 123°47'0 0.3
2017-Oct-13 02:59N 46°13' W 123°47'0 0.0
2017-Oct-13 02:20N 46°13' W 123°47'0 0.1
2017-Oct-13 01:56N 46°13' W 123°47'0 0.0
2017-Oct-13 01:26N 46°13' W 123°47'0 0.1
2017-Oct-13 00:59N 46°13' W 123°47'0 0.1
2017-Oct-13 00:29N 46°13' W 123°47'0 0.0
2017-Oct-12 23:59N 46°13' W 123°47'0 0.0
2017-Oct-12 23:29N 46°13' W 123°47'0 0.1
2017-Oct-12 22:59N 46°13' W 123°47'0 0.1
2017-Oct-12 22:29N 46°13' W 123°47'0 0.4
2017-Oct-12 21:59N 46°13' W 123°47'0 0.1
2017-Oct-12 21:26N 46°13' W 123°47'0 0.0
2017-Oct-12 20:59N 46°13' W 123°47'0 0.1
2017-Oct-12 20:26N 46°13' W 123°47'0 0.0
2017-Oct-12 19:56N 46°13' W 123°47'0 0.1
2017-Oct-12 19:29N 46°13' W 123°47'0 0.0
2017-Oct-12 18:59N 46°13' W 123°47'0 0.1
2017-Oct-12 18:29N 46°13' W 123°47'0 0.0
2017-Oct-12 17:38N 46°13' W 123°47'0 0.0
2017-Oct-12 17:29N 46°13' W 123°47'0 0.1
2017-Oct-12 16:56N 46°13' W 123°47'0 0.0
2017-Oct-12 16:29N 46°13' W 123°47'0 0.3
2017-Oct-12 15:59N 46°13' W 123°47'0 0.3
2017-Oct-12 15:29N 46°13' W 123°47'0 0.2
2017-Oct-12 14:59N 46°13' W 123°47'0 0.0
2017-Oct-12 14:29N 46°13' W 123°47'0 0.0
2017-Oct-12 13:50N 46°13' W 123°47'0 0.0
2017-Oct-12 13:29N 46°13' W 123°47'0 0.0
2017-Oct-12 12:53N 46°13' W 123°47'0 0.0
2017-Oct-12 12:29N 46°13' W 123°47'0 0.0
2017-Oct-12 11:53N 46°13' W 123°47'0 0.0
2017-Oct-12 11:29N 46°13' W 123°47'0 0.1
2017-Oct-12 10:56N 46°13' W 123°47'0 0.0
2017-Oct-12 10:29N 46°13' W 123°47'0 0.3
2017-Oct-12 09:50N 46°13' W 123°47'0 0.4
2017-Oct-12 09:29N 46°13' W 123°47'0 0.1
2017-Oct-12 08:50N 46°13' W 123°47'0 0.0
2017-Oct-12 08:29N 46°13' W 123°47'0 0.0
2017-Oct-12 07:41N 46°13' W 123°47'0 0.0
2017-Oct-12 07:29N 46°13' W 123°47'0 0.0
2017-Oct-12 06:59N 46°13' W 123°47'0 0.0
2017-Oct-12 06:29N 46°13' W 123°47'0 0.0
2017-Oct-12 05:59N 46°13' W 123°47'0 0.0
2017-Oct-12 05:26N 46°13' W 123°47'0 0.1
2017-Oct-12 04:59N 46°13' W 123°47'0 0.1
2017-Oct-12 04:29N 46°13' W 123°47'0 0.0
2017-Oct-12 03:59N 46°13' W 123°47'0 0.0
2017-Oct-12 03:29N 46°13' W 123°47'0 0.1
2017-Oct-12 02:59N 46°13' W 123°47'0 0.3
2017-Oct-12 02:29N 46°13' W 123°47'0 0.3
2017-Oct-12 01:59N 46°13' W 123°47'0 0.0
2017-Oct-12 01:26N 46°13' W 123°47'0 0.1
2017-Oct-12 00:59N 46°13' W 123°47'  
Track history (hours):
 
Tides and Currents Weather Stations Pressure Air Temp Water Temp Dewpoint Dewpoint Depression Visibility Wind Speed Wind Dir Waves Ship Positions

Baltia

Last reported at 2017-Oct-22 00:27 UTC. Time now 2017-Nov-23 00:26 UTC.
Position N 46°13' W 125°39'.
Warning: this ship's position is 31 days out of date.

Length 224 m; draft 13.1 m.

Type: Cargo ship. MMSI: 249174000.

Date/timePositionNaut miles runAvg speedWind from/ knotsBaromVisibWave heightAir tempDewpointWater temp
2017-Oct-22 00:27N 46°13' W 125°39'3 6.3
2017-Oct-22 00:00N 46°13' W 125°34'4 6.9
2017-Oct-21 23:30N 46°12' W 125°29'4 7.4
2017-Oct-21 22:59N 46°13' W 125°24'4 7.5
2017-Oct-21 22:30N 46°13' W 125°19'4 7.9
2017-Oct-21 22:00N 46°13' W 125°13'4 7.9
2017-Oct-21 21:30N 46°12' W 125°07'4 7.8
2017-Oct-21 21:00N 46°12' W 125°02'4 8.0
2017-Oct-21 20:30N 46°12' W 124°56'4 7.9
2017-Oct-21 20:00N 46°12' W 124°50'4 7.6
2017-Oct-21 19:30N 46°13' W 124°45'3 7.0
2017-Oct-21 19:00N 46°13' W 124°40'3 6.9
2017-Oct-21 18:30N 46°12' W 124°35'3 6.2
2017-Oct-21 18:00N 46°13' W 124°30'3 5.8
2017-Oct-21 17:30N 46°13' W 124°26'3 5.3
2017-Oct-21 17:00N 46°13' W 124°22'3 6.1
2017-Oct-21 16:30N 46°13' W 124°18'3 5.2
2017-Oct-21 16:00N 46°13' W 124°14'2 4.7
2017-Oct-21 15:30N 46°13' W 124°11'2 3.6
2017-Oct-21 15:00N 46°14' W 124°09'7 6.6
2017-Oct-21 14:00N 46°14' W 123°59'5 9.9
2017-Oct-21 13:30N 46°11' W 123°53'4 8.6
2017-Oct-21 13:01N 46°13' W 123°47'510.3
2017-Oct-21 12:30N 46°15' W 123°40'610.7
2017-Oct-21 11:59N 46°16' W 123°32'4 8.2
2017-Oct-21 11:30N 46°15' W 123°27'4 8.6
2017-Oct-21 11:01N 46°11' W 123°26'4 8.0
2017-Oct-21 10:30N 46°09' W 123°21'5 9.4
2017-Oct-21 10:00N 46°10' W 123°14'5 9.5
2017-Oct-21 09:30N 46°11' W 123°08'5 9.8
2017-Oct-21 09:00N 46°09' W 123°02'5 9.7
2017-Oct-21 08:31N 46°06' W 122°56'4 8.3
2017-Oct-21 08:00N 46°02' W 122°53'1 1.6
2017-Oct-21 07:30N 46°02' W 122°53'0 0.2
2017-Oct-21 07:00N 46°02' W 122°53'0 0.0
2017-Oct-21 06:30N 46°02' W 122°53'0 0.0
2017-Oct-21 06:00N 46°02' W 122°53'0 0.0
2017-Oct-21 05:30N 46°02' W 122°53'0 0.0
2017-Oct-21 05:00N 46°02' W 122°53'0 0.0
2017-Oct-21 04:30N 46°02' W 122°53'0 0.0
2017-Oct-21 04:00N 46°02' W 122°53'0 0.5
2017-Oct-21 03:30N 46°02' W 122°52'0 0.0
2017-Oct-21 02:59N 46°02' W 122°52'0 0.1
2017-Oct-21 02:20N 46°02' W 122°52'0 0.1
2017-Oct-21 01:56N 46°02' W 122°52'0 0.0
2017-Oct-21 01:29N 46°02' W 122°52'0 0.0
2017-Oct-21 00:59N 46°02' W 122°52'0 0.0
2017-Oct-21 00:27N 46°02' W 122°52'0 0.0
2017-Oct-20 23:14N 46°02' W 122°52'0 0.0
2017-Oct-20 22:59N 46°02' W 122°52'0 0.0
2017-Oct-20 22:29N 46°02' W 122°52'0 0.0
2017-Oct-20 21:59N 46°02' W 122°52'0 0.1
2017-Oct-20 21:29N 46°02' W 122°52'0 0.1
2017-Oct-20 20:59N 46°02' W 122°52'0 0.0
2017-Oct-20 20:26N 46°02' W 122°52'0 0.0
2017-Oct-20 19:57N 46°02' W 122°52'0 0.0
2017-Oct-20 19:20N 46°02' W 122°52'0 0.0
2017-Oct-20 18:50N 46°02' W 122°52'0 0.0
2017-Oct-20 18:30N 46°02' W 122°52'0 0.0
2017-Oct-20 17:56N 46°02' W 122°52'0 0.1
2017-Oct-20 17:29N 46°02' W 122°52'0 0.0
2017-Oct-20 16:26N 46°02' W 122°52'0 0.0
2017-Oct-20 15:59N 46°02' W 122°52'0 0.1
2017-Oct-20 15:20N 46°02' W 122°52'0 0.1
2017-Oct-20 14:38N 46°02' W 122°52'0 0.1
2017-Oct-20 13:59N 46°02' W 122°52'0 0.1
2017-Oct-20 13:29N 46°02' W 122°52'0 0.1
2017-Oct-20 12:59N 46°02' W 122°52'0 0.0
2017-Oct-20 12:26N 46°02' W 122°52'0 0.1
2017-Oct-20 11:59N 46°02' W 122°52'0 0.1
2017-Oct-20 11:29N 46°02' W 122°52'0 0.1
2017-Oct-20 10:53N 46°02' W 122°52'0 0.0
2017-Oct-20 10:29N 46°02' W 122°52'0 0.0
2017-Oct-20 09:59N 46°02' W 122°52'0 0.0
2017-Oct-20 09:26N 46°02' W 122°52'0 0.0
2017-Oct-20 08:59N 46°02' W 122°52'0 0.0
2017-Oct-20 08:29N 46°02' W 122°52'0 0.0
2017-Oct-20 07:56N 46°02' W 122°52'0 0.0
2017-Oct-20 07:29N 46°02' W 122°52'0 0.0
2017-Oct-20 06:53N 46°02' W 122°52'0 0.0
2017-Oct-20 06:29N 46°02' W 122°52'0 0.1
2017-Oct-20 05:56N 46°02' W 122°52'0 0.1
2017-Oct-20 05:29N 46°02' W 122°52'0 0.0
2017-Oct-20 04:59N 46°02' W 122°52'0 0.0
2017-Oct-20 04:29N 46°02' W 122°52'0 0.0
2017-Oct-20 03:56N 46°02' W 122°52'0 0.0
2017-Oct-20 03:29N 46°02' W 122°52'0 0.1
2017-Oct-20 02:59N 46°02' W 122°52'0 0.1
2017-Oct-20 02:29N 46°02' W 122°52'0 0.0
2017-Oct-20 01:59N 46°02' W 122°52'0 0.0
2017-Oct-20 01:29N 46°02' W 122°52'0 0.0
2017-Oct-20 00:56N 46°02' W 122°52'0 0.0
2017-Oct-20 00:26N 46°02' W 122°52'0 0.0
2017-Oct-19 23:59N 46°02' W 122°52'0 0.0
2017-Oct-19 23:26N 46°02' W 122°52'0 0.0
2017-Oct-19 22:59N 46°02' W 122°52'0 0.0
2017-Oct-19 22:26N 46°02' W 122°52'0 0.0
2017-Oct-19 21:56N 46°02' W 122°52'0 0.1
2017-Oct-19 21:26N 46°02' W 122°52'0 0.1
2017-Oct-19 20:56N 46°02' W 122°52'0 0.0
2017-Oct-19 20:29N 46°02' W 122°52'0 0.0
2017-Oct-19 20:00N 46°02' W 122°52'0 0.0
2017-Oct-19 19:29N 46°02' W 122°52'0 0.0
2017-Oct-19 18:59N 46°02' W 122°52'0 0.1
2017-Oct-19 18:29N 46°02' W 122°52'0 0.0
2017-Oct-19 17:38N 46°02' W 122°52'0 0.3
2017-Oct-19 17:29N 46°02' W 122°52'0 0.1
2017-Oct-19 16:59N 46°02' W 122°52'0 0.0
2017-Oct-19 16:29N 46°02' W 122°52'0 0.0
2017-Oct-19 15:56N 46°02' W 122°52'0 0.1
2017-Oct-19 15:29N 46°02' W 122°52'0 0.1
2017-Oct-19 14:59N 46°02' W 122°52'0 0.0
2017-Oct-19 13:47N 46°02' W 122°52'0 0.1
2017-Oct-19 13:20N 46°02' W 122°52'0 0.1
2017-Oct-19 12:56N 46°02' W 122°52'0 0.1
2017-Oct-19 12:29N 46°02' W 122°52'0 0.1
2017-Oct-19 11:56N 46°02' W 122°52'0 0.0
2017-Oct-19 11:29N 46°02' W 122°52'0 0.0
2017-Oct-19 10:59N 46°02' W 122°52'0 0.0
2017-Oct-19 09:50N 46°02' W 122°52'0 0.0
2017-Oct-19 09:23N 46°02' W 122°52'0 0.0
2017-Oct-19 08:59N 46°02' W 122°52'0 0.0
2017-Oct-19 08:23N 46°02' W 122°52'0 0.0
2017-Oct-19 07:56N 46°02' W 122°52'0 0.0
2017-Oct-19 07:26N 46°02' W 122°52'0 0.0
2017-Oct-19 06:59N 46°02' W 122°52'0 0.0
2017-Oct-19 06:29N 46°02' W 122°52'0 0.0
2017-Oct-19 05:56N 46°02' W 122°52'0 0.0
2017-Oct-19 05:29N 46°02' W 122°52'0 0.0
2017-Oct-19 04:50N 46°02' W 122°52'0 0.0
2017-Oct-19 04:23N 46°02' W 122°52'0 0.0
2017-Oct-19 03:59N 46°02' W 122°52'0 0.0
2017-Oct-19 03:29N 46°02' W 122°52'0 0.0
2017-Oct-19 02:59N 46°02' W 122°52'0 0.1
2017-Oct-19 02:23N 46°02' W 122°52'0 0.0
2017-Oct-19 01:50N 46°02' W 122°52'0 0.1
2017-Oct-19 01:29N 46°02' W 122°52'0 0.0
2017-Oct-19 00:56N 46°02' W 122°52'0 0.0
2017-Oct-19 00:26N 46°02' W 122°52'0 0.0
2017-Oct-18 23:53N 46°02' W 122°52'0 0.0
2017-Oct-18 23:20N 46°02' W 122°52'0 0.0
2017-Oct-18 22:59N 46°02' W 122°52'0 0.0
2017-Oct-18 22:29N 46°02' W 122°52'0 0.1
2017-Oct-18 21:59N 46°02' W 122°52'0 0.0
2017-Oct-18 21:26N 46°02' W 122°52'0 0.1
2017-Oct-18 20:59N 46°02' W 122°52'0 0.0
2017-Oct-18 20:29N 46°02' W 122°52'0 0.0
2017-Oct-18 19:59N 46°02' W 122°52'0 0.0
2017-Oct-18 19:29N 46°02' W 122°52'0 0.0
2017-Oct-18 18:53N 46°02' W 122°52'0 0.0
2017-Oct-18 18:29N 46°02' W 122°52'0 0.0
2017-Oct-18 17:56N 46°02' W 122°52'0 0.0
2017-Oct-18 17:29N 46°02' W 122°52'0 0.0
2017-Oct-18 16:59N 46°02' W 122°52'0 0.0
2017-Oct-18 16:29N 46°02' W 122°52'0 0.0
2017-Oct-18 15:50N 46°02' W 122°52'0 0.1
2017-Oct-18 15:23N 46°02' W 122°52'0 0.1
2017-Oct-18 14:59N 46°02' W 122°52'0 0.0
2017-Oct-18 13:59N 46°02' W 122°52'0 0.1
2017-Oct-18 13:29N 46°02' W 122°52'0 0.0
2017-Oct-18 12:44N 46°02' W 122°52'0 0.2
2017-Oct-18 12:29N 46°02' W 122°52'0 0.1
2017-Oct-18 11:59N 46°02' W 122°52'0 0.0
2017-Oct-18 11:29N 46°02' W 122°52'0 0.0
2017-Oct-18 10:56N 46°02' W 122°52'0 0.0
2017-Oct-18 10:26N 46°02' W 122°52'0 0.0
2017-Oct-18 09:50N 46°02' W 122°52'0 0.0
2017-Oct-18 09:26N 46°02' W 122°52'0 0.0
2017-Oct-18 08:44N 46°02' W 122°52'0 0.0
2017-Oct-18 08:14N 46°02' W 122°52'0 0.0
2017-Oct-18 07:56N 46°02' W 122°52'0 0.0
2017-Oct-18 07:26N 46°02' W 122°52'0 0.0
2017-Oct-18 06:53N 46°02' W 122°52'0 0.0
2017-Oct-18 06:29N 46°02' W 122°52'0 0.0
2017-Oct-18 05:38N 46°02' W 122°52'0 0.0
2017-Oct-18 05:29N 46°02' W 122°52'0 0.0
2017-Oct-18 04:59N 46°02' W 122°52'0 0.0
2017-Oct-18 04:29N 46°02' W 122°52'0 0.0
2017-Oct-18 03:59N 46°02' W 122°52'0 0.0
2017-Oct-18 03:23N 46°02' W 122°52'0 0.0
2017-Oct-18 02:59N 46°02' W 122°52'0 0.0
2017-Oct-18 02:29N 46°02' W 122°52'0 0.0
2017-Oct-18 02:00N 46°02' W 122°52'0 0.3
2017-Oct-18 01:30N 46°02' W 122°52'0 0.1
2017-Oct-18 01:00N 46°02' W 122°52'0 0.0
2017-Oct-18 00:30N 46°02' W 122°52'3 5.3
2017-Oct-18 00:00N 46°04' W 122°53'4 8.8
2017-Oct-17 23:30N 46°07' W 122°58'510.7
2017-Oct-17 23:00N 46°10' W 123°05'611.2
2017-Oct-17 22:30N 46°10' W 123°13'611.9
2017-Oct-17 22:00N 46°09' W 123°21'5 9.1
2017-Oct-17 21:30N 46°12' W 123°26'511.0
2017-Oct-17 21:00N 46°16' W 123°31'713.7
2017-Oct-17 20:30N 46°15' W 123°40'5 9.9
2017-Oct-17 20:01N 46°13' W 123°47'0 0.4
2017-Oct-17 19:29N 46°13' W 123°47'0 0.1
2017-Oct-17 18:59N 46°13' W 123°47'0 0.0
2017-Oct-17 18:29N 46°13' W 123°47'0 0.0
2017-Oct-17 17:59N 46°13' W 123°47'0 0.1
2017-Oct-17 17:29N 46°13' W 123°47'0 0.1
2017-Oct-17 16:59N 46°13' W 123°46'0 0.2
2017-Oct-17 16:14N 46°13' W 123°47'0 0.2
2017-Oct-17 15:59N 46°13' W 123°47'0 0.1
2017-Oct-17 15:29N 46°13' W 123°47'0 0.4
2017-Oct-17 14:59N 46°13' W 123°47'0 0.2
2017-Oct-17 14:29N 46°13' W 123°47'0 0.1
2017-Oct-17 13:59N 46°13' W 123°47'0 0.1
2017-Oct-17 13:29N 46°13' W 123°47'0 0.1
2017-Oct-17 12:59N 46°13' W 123°47'0 0.0
2017-Oct-17 12:29N 46°13' W 123°47'0 0.0
2017-Oct-17 11:59N 46°13' W 123°47'0 0.0
2017-Oct-17 11:29N 46°13' W 123°47'0 0.0
2017-Oct-17 10:59N 46°13' W 123°47'0 0.1
2017-Oct-17 10:29N 46°13' W 123°47'0 0.0
2017-Oct-17 09:59N 46°13' W 123°47'0 0.0
2017-Oct-17 09:29N 46°13' W 123°47'0 0.1
2017-Oct-17 08:59N 46°13' W 123°47'0 0.1
2017-Oct-17 08:29N 46°13' W 123°47'0 0.4
2017-Oct-17 07:59N 46°13' W 123°47'0 0.1
2017-Oct-17 07:29N 46°13' W 123°47'0 0.0
2017-Oct-17 06:59N 46°13' W 123°47'0 0.1
2017-Oct-17 06:29N 46°13' W 123°47'0 0.0
2017-Oct-17 05:59N 46°13' W 123°47'0 0.0
2017-Oct-17 05:26N 46°13' W 123°47'0 0.0
2017-Oct-17 04:59N 46°13' W 123°47'0 0.0
2017-Oct-17 04:29N 46°13' W 123°47'0 0.1
2017-Oct-17 03:59N 46°13' W 123°47'0 0.0
2017-Oct-17 03:29N 46°13' W 123°47'0 0.4
2017-Oct-17 02:56N 46°13' W 123°47'0 0.2
2017-Oct-17 02:26N 46°13' W 123°47'0 0.0
2017-Oct-17 01:56N 46°13' W 123°47'0 0.0
2017-Oct-17 01:29N 46°13' W 123°47'0 0.0
2017-Oct-17 00:59N 46°13' W 123°47'0 0.0
2017-Oct-17 00:29N 46°13' W 123°47'0 0.1
2017-Oct-16 23:59N 46°13' W 123°47'0 0.1
2017-Oct-16 23:26N 46°13' W 123°47'0 0.1
2017-Oct-16 22:59N 46°13' W 123°47'0 0.0
2017-Oct-16 22:26N 46°13' W 123°47'0 0.1
2017-Oct-16 21:59N 46°13' W 123°47'0 0.1
2017-Oct-16 21:29N 46°13' W 123°47'0 0.1
2017-Oct-16 20:59N 46°13' W 123°47'0 0.2
2017-Oct-16 20:29N 46°13' W 123°47'0 0.4
2017-Oct-16 19:59N 46°13' W 123°47'0 0.0
2017-Oct-16 19:29N 46°13' W 123°47'0 0.0
2017-Oct-16 18:59N 46°13' W 123°47'0 0.1
2017-Oct-16 18:29N 46°13' W 123°47'0 0.0
2017-Oct-16 17:59N 46°13' W 123°47'0 0.0
2017-Oct-16 17:29N 46°13' W 123°47'0 0.0
2017-Oct-16 16:59N 46°13' W 123°47'0 0.0
2017-Oct-16 16:29N 46°13' W 123°47'0 0.0
2017-Oct-16 15:59N 46°13' W 123°47'0 0.1
2017-Oct-16 15:29N 46°13' W 123°47'0 0.2
2017-Oct-16 14:59N 46°13' W 123°47'0 0.3
2017-Oct-16 14:29N 46°13' W 123°47'0 0.0
2017-Oct-16 13:26N 46°13' W 123°47'0 0.0
2017-Oct-16 12:59N 46°13' W 123°47'0 0.0
2017-Oct-16 12:29N 46°13' W 123°47'0 0.1
2017-Oct-16 11:59N 46°13' W 123°47'0 0.1
2017-Oct-16 11:29N 46°13' W 123°47'0 0.0
2017-Oct-16 10:59N 46°13' W 123°47'0 0.0
2017-Oct-16 10:29N 46°13' W 123°47'0 0.0
2017-Oct-16 09:29N 46°13' W 123°47'0 0.0
2017-Oct-16 08:59N 46°13' W 123°47'0 0.1
2017-Oct-16 08:29N 46°13' W 123°47'0 0.1
2017-Oct-16 07:59N 46°13' W 123°47'0 0.1
2017-Oct-16 07:02N 46°13' W 123°47'0 0.2
2017-Oct-16 06:56N 46°13' W 123°47'0 0.4
2017-Oct-16 06:26N 46°13' W 123°47'0 0.0
2017-Oct-16 05:59N 46°13' W 123°47'0 0.1
2017-Oct-16 05:29N 46°13' W 123°47'0 0.0
2017-Oct-16 04:59N 46°13' W 123°47'0 0.0
2017-Oct-16 04:29N 46°13' W 123°47'0 0.0
2017-Oct-16 03:59N 46°13' W 123°47'0 0.0
2017-Oct-16 03:29N 46°13' W 123°47'0 0.0
2017-Oct-16 02:59N 46°13' W 123°47'0 0.2
2017-Oct-16 02:29N 46°13' W 123°47'0 0.3
2017-Oct-16 01:59N 46°13' W 123°47'0 0.1
2017-Oct-16 01:29N 46°13' W 123°47'0 0.0
2017-Oct-16 00:59N 46°13' W 123°47'0 0.0
2017-Oct-16 00:29N 46°13' W 123°47'0 0.0
2017-Oct-15 23:53N 46°13' W 123°47'0 0.0
2017-Oct-15 23:29N 46°13' W 123°47'0 0.0
2017-Oct-15 22:59N 46°13' W 123°47'0 0.0
2017-Oct-15 22:29N 46°13' W 123°47'0 0.0
2017-Oct-15 21:59N 46°13' W 123°47'0 0.0
2017-Oct-15 21:29N 46°13' W 123°47'0 0.1
2017-Oct-15 20:59N 46°13' W 123°47'0 0.0
2017-Oct-15 20:29N 46°13' W 123°47'0 0.1
2017-Oct-15 19:59N 46°13' W 123°47'0 0.0
2017-Oct-15 19:23N 46°13' W 123°47'0 0.3
2017-Oct-15 18:56N 46°13' W 123°47'0 0.3
2017-Oct-15 18:29N 46°13' W 123°47'0 0.1
2017-Oct-15 17:59N 46°13' W 123°47'0 0.0
2017-Oct-15 17:29N 46°13' W 123°47'0 0.0
2017-Oct-15 16:59N 46°13' W 123°47'0 0.0
2017-Oct-15 16:29N 46°13' W 123°47'0 0.0
2017-Oct-15 15:59N 46°13' W 123°47'0 0.0
2017-Oct-15 15:29N 46°13' W 123°47'0 0.1
2017-Oct-15 14:59N 46°13' W 123°47'0 0.2
2017-Oct-15 13:50N 46°13' W 123°47'0 0.2
2017-Oct-15 13:29N 46°13' W 123°47'0 0.1
2017-Oct-15 12:59N 46°13' W 123°47'0 0.0
2017-Oct-15 12:29N 46°13' W 123°47'0 0.0
2017-Oct-15 11:59N 46°13' W 123°47'0 0.0
2017-Oct-15 11:26N 46°13' W 123°47'0 0.0
2017-Oct-15 10:59N 46°13' W 123°47'0 0.0
2017-Oct-15 10:29N 46°13' W 123°47'0 0.0
2017-Oct-15 09:59N 46°13' W 123°47'0 0.0
2017-Oct-15 09:29N 46°13' W 123°47'0 0.0
2017-Oct-15 08:59N 46°13' W 123°47'0 0.1
2017-Oct-15 08:29N 46°13' W 123°47'0 0.0
2017-Oct-15 07:56N 46°13' W 123°47'0 0.1
2017-Oct-15 07:29N 46°13' W 123°47'0 0.0
2017-Oct-15 06:59N 46°13' W 123°47'0 0.0
2017-Oct-15 06:29N 46°13' W 123°47'0 0.0
2017-Oct-15 05:59N 46°13' W 123°47'0 0.3
2017-Oct-15 05:29N 46°13' W 123°47'0 0.2
2017-Oct-15 04:53N 46°13' W 123°47'0 0.0
2017-Oct-15 04:29N 46°13' W 123°47'0 0.1
2017-Oct-15 03:59N 46°13' W 123°47'0 0.0
2017-Oct-15 03:29N 46°13' W 123°47'0 0.0
2017-Oct-15 02:59N 46°13' W 123°47'0 0.0
2017-Oct-15 02:29N 46°13' W 123°47'0 0.1
2017-Oct-15 01:38N 46°13' W 123°47'0 0.3
2017-Oct-15 01:20N 46°13' W 123°47'0 0.2
2017-Oct-15 00:59N 46°13' W 123°47'0 0.1
2017-Oct-15 00:29N 46°13' W 123°47'0 0.0
2017-Oct-14 23:56N 46°13' W 123°47'0 0.0
2017-Oct-14 23:26N 46°13' W 123°47'0 0.0
2017-Oct-14 22:53N 46°13' W 123°47'0 0.0
2017-Oct-14 22:29N 46°13' W 123°47'0 0.0
2017-Oct-14 21:56N 46°13' W 123°47'0 0.0
2017-Oct-14 21:29N 46°13' W 123°47'0 0.0
2017-Oct-14 20:59N 46°13' W 123°47'0 0.1
2017-Oct-14 20:29N 46°13' W 123°47'0 0.1
2017-Oct-14 19:59N 46°13' W 123°47'0 0.0
2017-Oct-14 19:26N 46°13' W 123°47'0 0.0
2017-Oct-14 18:59N 46°13' W 123°47'0 0.0
2017-Oct-14 18:29N 46°13' W 123°47'0 0.0
2017-Oct-14 17:59N 46°13' W 123°47'0 0.3
2017-Oct-14 17:26N 46°13' W 123°47'0 0.3
2017-Oct-14 16:56N 46°13' W 123°47'0 0.0
2017-Oct-14 16:29N 46°13' W 123°47'0 0.0
2017-Oct-14 15:59N 46°13' W 123°47'0 0.0
2017-Oct-14 15:08N 46°13' W 123°47'0 0.0
2017-Oct-14 14:59N 46°13' W 123°47'0 0.1
2017-Oct-14 14:29N 46°13' W 123°47'0 0.0
2017-Oct-14 13:59N 46°13' W 123°47'0 0.2
2017-Oct-14 13:26N 46°13' W 123°47'0 0.2
2017-Oct-14 12:56N 46°13' W 123°47'0 0.3
2017-Oct-14 12:29N 46°13' W 123°47'0 0.1
2017-Oct-14 11:59N 46°13' W 123°47'0 0.1
2017-Oct-14 11:29N 46°13' W 123°47'0 0.0
2017-Oct-14 10:59N 46°13' W 123°47'0 0.0
2017-Oct-14 10:29N 46°13' W 123°47'0 0.1
2017-Oct-14 09:59N 46°13' W 123°47'0 0.1
2017-Oct-14 09:29N 46°13' W 123°47'0 0.0
2017-Oct-14 08:56N 46°13' W 123°47'0 0.0
2017-Oct-14 08:29N 46°13' W 123°47'0 0.0
2017-Oct-14 07:59N 46°13' W 123°47'0 0.0
2017-Oct-14 07:29N 46°13' W 123°47'0 0.0
2017-Oct-14 06:59N 46°13' W 123°47'0 0.1
2017-Oct-14 06:26N 46°13' W 123°47'0 0.1
2017-Oct-14 05:59N 46°13' W 123°47'0 0.1
2017-Oct-14 05:29N 46°13' W 123°47'0 0.0
2017-Oct-14 04:59N 46°13' W 123°47'0 0.1
2017-Oct-14 04:26N 46°13' W 123°47'0 0.3
2017-Oct-14 03:59N 46°13' W 123°47'0 0.1
2017-Oct-14 03:20N 46°13' W 123°47'0 0.0
2017-Oct-14 02:59N 46°13' W 123°47'0 0.1
2017-Oct-14 02:29N 46°13' W 123°47'0 0.0
2017-Oct-14 01:59N 46°13' W 123°47'0 0.0
2017-Oct-14 01:29N 46°13' W 123°47'0 0.0
2017-Oct-14 00:59N 46°13' W 123°47'0 0.2
2017-Oct-14 00:29N 46°13' W 123°47'0 0.1
2017-Oct-13 23:59N 46°13' W 123°47'0 0.2
2017-Oct-13 23:29N 46°13' W 123°47'0 0.1
2017-Oct-13 22:59N 46°13' W 123°47'0 0.0
2017-Oct-13 22:23N 46°13' W 123°47'0 0.0
2017-Oct-13 21:59N 46°13' W 123°47'0 0.0
2017-Oct-13 21:11N 46°13' W 123°47'0 0.1
2017-Oct-13 20:59N 46°13' W 123°47'0 0.1
2017-Oct-13 20:26N 46°13' W 123°47'0 0.0
2017-Oct-13 19:59N 46°13' W 123°47'0 0.1
2017-Oct-13 19:29N 46°13' W 123°47'0 0.1
2017-Oct-13 18:59N 46°13' W 123°47'0 0.1
2017-Oct-13 18:20N 46°13' W 123°47'0 0.0
2017-Oct-13 17:59N 46°13' W 123°47'0 0.2
2017-Oct-13 17:14N 46°13' W 123°47'0 0.4
2017-Oct-13 16:59N 46°13' W 123°47'0 0.2
2017-Oct-13 16:29N 46°13' W 123°47'0 0.1
2017-Oct-13 15:59N 46°13' W 123°47'0 0.0
2017-Oct-13 15:26N 46°13' W 123°47'0 0.0
2017-Oct-13 14:59N 46°13' W 123°47'0 0.0
2017-Oct-13 14:29N 46°13' W 123°47'0 0.0
2017-Oct-13 13:50N 46°13' W 123°47'0 0.0
2017-Oct-13 13:29N 46°13' W 123°47'0 0.1
2017-Oct-13 12:50N 46°13' W 123°47'0 0.0
2017-Oct-13 12:29N 46°13' W 123°47'0 0.1
2017-Oct-13 11:56N 46°13' W 123°47'0 0.3
2017-Oct-13 11:29N 46°13' W 123°47'0 0.3
2017-Oct-13 10:59N 46°13' W 123°47'0 0.0
2017-Oct-13 10:29N 46°13' W 123°47'0 0.0
2017-Oct-13 09:59N 46°13' W 123°47'0 0.1
2017-Oct-13 09:14N 46°13' W 123°47'0 0.0
2017-Oct-13 08:56N 46°13' W 123°47'0 0.0
2017-Oct-13 08:14N 46°13' W 123°47'0 0.1
2017-Oct-13 07:50N 46°13' W 123°47'0 0.1
2017-Oct-13 07:29N 46°13' W 123°47'0 0.0
2017-Oct-13 06:59N 46°13' W 123°47'0 0.0
2017-Oct-13 06:29N 46°13' W 123°47'0 0.0
2017-Oct-13 05:47N 46°13' W 123°47'0 0.0
2017-Oct-13 05:29N 46°13' W 123°47'0 0.0
2017-Oct-13 04:59N 46°13' W 123°47'0 0.0
2017-Oct-13 04:29N 46°13' W 123°47'0 0.1
2017-Oct-13 03:59N 46°13' W 123°47'0 0.4
2017-Oct-13 03:29N 46°13' W 123°47'0 0.3
2017-Oct-13 02:59N 46°13' W 123°47'0 0.0
2017-Oct-13 02:20N 46°13' W 123°47'0 0.1
2017-Oct-13 01:56N 46°13' W 123°47'0 0.0
2017-Oct-13 01:26N 46°13' W 123°47'0 0.1
2017-Oct-13 00:59N 46°13' W 123°47'0 0.1
2017-Oct-13 00:29N 46°13' W 123°47'0 0.0
2017-Oct-12 23:59N 46°13' W 123°47'0 0.0
2017-Oct-12 23:29N 46°13' W 123°47'0 0.1
2017-Oct-12 22:59N 46°13' W 123°47'0 0.1
2017-Oct-12 22:29N 46°13' W 123°47'0 0.4
2017-Oct-12 21:59N 46°13' W 123°47'0 0.1
2017-Oct-12 21:26N 46°13' W 123°47'0 0.0
2017-Oct-12 20:59N 46°13' W 123°47'0 0.1
2017-Oct-12 20:26N 46°13' W 123°47'0 0.0
2017-Oct-12 19:56N 46°13' W 123°47'0 0.1
2017-Oct-12 19:29N 46°13' W 123°47'0 0.0
2017-Oct-12 18:59N 46°13' W 123°47'0 0.1
2017-Oct-12 18:29N 46°13' W 123°47'0 0.0
2017-Oct-12 17:38N 46°13' W 123°47'0 0.0
2017-Oct-12 17:29N 46°13' W 123°47'0 0.1
2017-Oct-12 16:56N 46°13' W 123°47'0 0.0
2017-Oct-12 16:29N 46°13' W 123°47'0 0.3
2017-Oct-12 15:59N 46°13' W 123°47'0 0.3
2017-Oct-12 15:29N 46°13' W 123°47'0 0.2
2017-Oct-12 14:59N 46°13' W 123°47'0 0.0
2017-Oct-12 14:29N 46°13' W 123°47'0 0.0
2017-Oct-12 13:50N 46°13' W 123°47'0 0.0
2017-Oct-12 13:29N 46°13' W 123°47'0 0.0
2017-Oct-12 12:53N 46°13' W 123°47'0 0.0
2017-Oct-12 12:29N 46°13' W 123°47'0 0.0
2017-Oct-12 11:53N 46°13' W 123°47'0 0.0
2017-Oct-12 11:29N 46°13' W 123°47'0 0.1
2017-Oct-12 10:56N 46°13' W 123°47'0 0.0
2017-Oct-12 10:29N 46°13' W 123°47'0 0.3
2017-Oct-12 09:50N 46°13' W 123°47'0 0.4
2017-Oct-12 09:29N 46°13' W 123°47'0 0.1
2017-Oct-12 08:50N 46°13' W 123°47'0 0.0
2017-Oct-12 08:29N 46°13' W 123°47'0 0.0
2017-Oct-12 07:41N 46°13' W 123°47'0 0.0
2017-Oct-12 07:29N 46°13' W 123°47'0 0.0
2017-Oct-12 06:59N 46°13' W 123°47'0 0.0
2017-Oct-12 06:29N 46°13' W 123°47'0 0.0
2017-Oct-12 05:59N 46°13' W 123°47'0 0.0
2017-Oct-12 05:26N 46°13' W 123°47'0 0.1
2017-Oct-12 04:59N 46°13' W 123°47'0 0.1
2017-Oct-12 04:29N 46°13' W 123°47'0 0.0
2017-Oct-12 03:59N 46°13' W 123°47'0 0.0
2017-Oct-12 03:29N 46°13' W 123°47'0 0.1
2017-Oct-12 02:59N 46°13' W 123°47'0 0.3
2017-Oct-12 02:29N 46°13' W 123°47'0 0.3
2017-Oct-12 01:59N 46°13' W 123°47'0 0.0
2017-Oct-12 01:26N 46°13' W 123°47'0 0.1
2017-Oct-12 00:59N 46°13' W 123°47'  

Dump ship's entire track history